Time;durP1;ratioP1;P1;durP2;ratioP2;P2;SDS_P1;SDS_P2;PMS_P1;PMS_P2;Temp;Humidity;BMP_temperature;BMP_pressure;BME280_temperature;BME280_humidity;BME280_pressure;Samples;Min_cycle;Max_cycle;Signal;HPM_P1;HPM_P2
2022/03/30 00:00:43;;;;;;;45.77;23.33;;;8.90;99.90;;;;;;5052694;28;20184;-69
2022/03/30 00:03:09;;;;;;;49.87;24.27;;;8.90;99.90;;;;;;5045691;28;20206;-69
2022/03/30 00:05:35;;;;;;;46.20;23.57;;;8.90;99.90;;;;;;5062473;28;20557;-69
2022/03/30 00:08:01;;;;;;;49.17;24.63;;;8.90;99.90;;;;;;5071401;28;20173;-70
2022/03/30 00:10:27;;;;;;;48.57;24.93;;;9.00;99.90;;;;;;5061909;28;20291;-68
2022/03/30 00:12:54;;;;;;;46.60;24.90;;;9.00;99.90;;;;;;5056391;28;20164;-67
2022/03/30 00:15:20;;;;;;;49.77;24.60;;;9.00;99.90;;;;;;5062419;28;20231;-67
2022/03/30 00:17:46;;;;;;;49.90;25.20;;;9.00;99.90;;;;;;5070939;28;20585;-67
2022/03/30 00:20:12;;;;;;;47.17;24.83;;;9.00;99.90;;;;;;5071176;28;20180;-66
2022/03/30 00:22:38;;;;;;;51.97;23.50;;;9.00;99.90;;;;;;5070447;28;20203;-66
2022/03/30 00:25:07;;;;;;;51.47;24.00;;;9.00;99.90;;;;;;5070638;28;20204;-67
2022/03/30 00:27:34;;;;;;;50.07;24.43;;;9.10;99.90;;;;;;5067775;28;20260;-66
2022/03/30 00:30:00;;;;;;;49.87;24.80;;;9.10;99.90;;;;;;5068975;28;20272;-67
2022/03/30 00:32:26;;;;;;;52.17;24.93;;;9.00;99.90;;;;;;5057305;28;20696;-67
2022/03/30 00:34:51;;;;;;;45.83;23.53;;;9.00;99.90;;;;;;5063516;28;20191;-66
2022/03/30 00:37:17;;;;;;;46.77;23.90;;;9.00;99.90;;;;;;5070909;28;20176;-66
2022/03/30 00:39:43;;;;;;;52.47;24.33;;;9.00;99.90;;;;;;5060495;28;20184;-67
2022/03/30 00:42:20;;;;;;;50.63;24.50;;;9.00;99.90;;;;;;5057224;28;20177;-67
2022/03/30 00:44:54;;;;;;;49.80;22.57;;;9.10;99.90;;;;;;5058079;28;20592;-68
2022/03/30 00:47:25;;;;;;;54.07;24.60;;;9.10;99.90;;;;;;5047283;28;20219;-67
2022/03/30 00:49:52;;;;;;;47.87;24.50;;;9.10;99.90;;;;;;5047156;28;20271;-63
2022/03/30 00:52:20;;;;;;;46.53;23.70;;;9.10;99.90;;;;;;5047344;28;20655;-60
2022/03/30 00:54:49;;;;;;;49.43;24.53;;;9.10;99.90;;;;;;5047202;28;20176;-60
2022/03/30 00:57:18;;;;;;;49.07;24.00;;;9.10;99.90;;;;;;5046896;28;20169;-60
2022/03/30 00:59:44;;;;;;;46.50;22.27;;;9.00;99.90;;;;;;5045771;28;20177;-60
2022/03/30 01:02:10;;;;;;;49.53;23.73;;;9.10;99.90;;;;;;5046910;28;20180;-61
2022/03/30 01:04:36;;;;;;;49.47;23.97;;;9.10;99.90;;;;;;5047030;28;20200;-61
2022/03/30 01:07:02;;;;;;;46.50;22.90;;;9.10;99.90;;;;;;5047127;28;20177;-60
2022/03/30 01:09:29;;;;;;;44.00;22.40;;;9.10;99.90;;;;;;5047153;28;20166;-61
2022/03/30 01:11:56;;;;;;;44.27;22.07;;;9.10;99.90;;;;;;5046963;28;20173;-61
2022/03/30 01:14:26;;;;;;;50.63;22.87;;;9.10;99.90;;;;;;5046733;28;20205;-62
2022/03/30 01:16:52;;;;;;;41.70;21.37;;;9.10;99.90;;;;;;5046619;28;20228;-61
2022/03/30 01:19:18;;;;;;;44.43;22.30;;;9.10;99.90;;;;;;5043118;28;20637;-61
2022/03/30 01:21:44;;;;;;;43.60;20.40;;;9.00;99.90;;;;;;5026968;28;20200;-61
2022/03/30 01:24:11;;;;;;;42.47;21.53;;;9.00;99.90;;;;;;5026783;28;20684;-61
2022/03/30 01:26:37;;;;;;;44.73;21.67;;;9.00;99.90;;;;;;5045182;28;20630;-61
2022/03/30 01:32:25;;;;;;;45.20;22.13;;;9.00;99.90;;;;;;5046680;28;20177;-61
2022/03/30 01:34:35;;;;;;;40.07;19.60;;;8.90;99.90;;;;;;5046364;28;20338;-62
2022/03/30 01:37:03;;;;;;;43.03;20.97;;;8.90;99.90;;;;;;5046282;28;20220;-61
2022/03/30 01:39:29;;;;;;;38.60;20.43;;;8.90;99.90;;;;;;5046270;28;20203;-61
2022/03/30 01:41:55;;;;;;;43.03;20.80;;;8.90;99.90;;;;;;5046415;28;20256;-63
2022/03/30 01:44:21;;;;;;;41.27;20.20;;;8.90;99.90;;;;;;5046325;28;20766;-62
2022/03/30 01:46:47;;;;;;;41.57;20.13;;;8.90;99.90;;;;;;5046083;28;20252;-61
2022/03/30 01:49:13;;;;;;;42.70;20.27;;;8.80;99.90;;;;;;5045878;28;20181;-61
2022/03/30 01:51:39;;;;;;;35.80;18.80;;;8.80;99.90;;;;;;5046204;28;20223;-61
2022/03/30 01:54:04;;;;;;;36.27;19.03;;;8.80;99.90;;;;;;5043202;28;20610;-61
2022/03/30 01:56:30;;;;;;;37.93;19.00;;;8.80;99.90;;;;;;5032444;28;20953;-61
2022/03/30 01:58:56;;;;;;;35.80;18.40;;;8.90;99.90;;;;;;5032158;28;20170;-61
2022/03/30 02:01:22;;;;;;;36.53;19.20;;;8.80;99.90;;;;;;5032552;28;20277;-61
2022/03/30 02:03:48;;;;;;;35.73;18.97;;;8.90;99.90;;;;;;5032758;28;20613;-61
2022/03/30 02:06:15;;;;;;;36.43;18.27;;;8.80;99.90;;;;;;5032836;28;20205;-61
2022/03/30 02:08:42;;;;;;;34.47;18.13;;;8.80;99.90;;;;;;5032562;28;20243;-61
2022/03/30 02:11:07;;;;;;;33.57;17.83;;;8.80;99.90;;;;;;5032036;28;20613;-61
2022/03/30 02:13:33;;;;;;;36.73;18.27;;;8.80;99.90;;;;;;5031275;28;20181;-61
2022/03/30 02:15:59;;;;;;;38.20;19.20;;;8.70;99.90;;;;;;5032709;28;20193;-61
2022/03/30 02:18:25;;;;;;;36.37;19.20;;;8.80;99.90;;;;;;5032763;28;20272;-62
2022/03/30 02:20:52;;;;;;;33.33;18.17;;;8.80;99.90;;;;;;5032203;28;20606;-62
2022/03/30 02:23:18;;;;;;;35.57;18.27;;;8.80;99.90;;;;;;5031663;28;20213;-62
2022/03/30 02:25:44;;;;;;;39.00;19.70;;;8.80;99.90;;;;;;5032119;28;20173;-62
2022/03/30 02:28:10;;;;;;;40.07;19.70;;;8.80;99.90;;;;;;5032508;28;20671;-62
2022/03/30 02:30:36;;;;;;;37.87;19.10;;;8.80;99.90;;;;;;5032056;28;20174;-62
2022/03/30 02:33:02;;;;;;;39.83;20.73;;;8.80;99.90;;;;;;5032299;28;20169;-62
2022/03/30 02:35:28;;;;;;;39.47;19.97;;;8.80;99.90;;;;;;5031889;28;20193;-62
2022/03/30 02:37:56;;;;;;;37.13;19.10;;;8.70;99.90;;;;;;5032078;28;20628;-62
2022/03/30 02:40:22;;;;;;;33.93;18.60;;;8.70;99.90;;;;;;5032206;28;20178;-62
2022/03/30 02:42:48;;;;;;;37.00;19.17;;;8.70;99.90;;;;;;5030712;28;20230;-62
2022/03/30 02:45:14;;;;;;;36.97;19.50;;;8.70;99.90;;;;;;5032188;28;20583;-63
2022/03/30 02:50:25;;;;;;;35.20;19.53;;;8.60;99.90;;;;;;5024686;28;20255;-62
2022/03/30 02:52:50;;;;;;;35.67;19.80;;;8.60;99.90;;;;;;5032031;28;20193;-62
2022/03/30 02:55:16;;;;;;;34.93;19.10;;;8.60;99.90;;;;;;5031569;28;20189;-62
2022/03/30 02:57:42;;;;;;;36.53;19.43;;;8.50;99.90;;;;;;5031867;28;20174;-62
2022/03/30 03:00:08;;;;;;;37.30;19.67;;;8.50;99.90;;;;;;5031587;28;20185;-62
2022/03/30 03:02:34;;;;;;;42.87;20.63;;;8.50;99.90;;;;;;5031603;28;20231;-63
2022/03/30 03:05:01;;;;;;;39.93;20.33;;;8.50;99.90;;;;;;5031675;28;20641;-63
2022/03/30 03:07:28;;;;;;;36.43;20.20;;;8.60;99.90;;;;;;5030685;28;20211;-63
2022/03/30 03:09:53;;;;;;;37.73;21.33;;;8.50;99.90;;;;;;5031826;28;20323;-63
2022/03/30 03:12:19;;;;;;;40.77;20.57;;;8.60;99.90;;;;;;5031509;28;20641;-63
2022/03/30 03:14:45;;;;;;;40.27;20.87;;;8.60;99.90;;;;;;5031219;28;20267;-63
2022/03/30 03:17:11;;;;;;;37.47;21.00;;;8.60;99.90;;;;;;5031184;28;20649;-63
2022/03/30 03:19:37;;;;;;;39.87;20.93;;;8.60;99.90;;;;;;5030058;28;20265;-63
2022/03/30 03:22:04;;;;;;;39.87;20.83;;;8.50;99.90;;;;;;5029825;28;20182;-62
2022/03/30 03:24:30;;;;;;;37.27;20.70;;;8.60;99.90;;;;;;5030860;28;20299;-62
2022/03/30 03:26:56;;;;;;;38.17;20.63;;;8.60;99.90;;;;;;5031374;28;20216;-62
2022/03/30 03:29:21;;;;;;;34.90;19.23;;;8.60;99.90;;;;;;5015690;28;20186;-62
2022/03/30 03:31:47;;;;;;;35.40;19.57;;;8.50;99.90;;;;;;5011525;28;20552;-62
2022/03/30 03:34:13;;;;;;;38.60;20.63;;;8.50;99.90;;;;;;5020799;28;20286;-62
2022/03/30 03:36:39;;;;;;;34.37;20.23;;;8.40;99.90;;;;;;5030517;28;20241;-62
2022/03/30 03:39:05;;;;;;;36.93;19.97;;;8.40;99.90;;;;;;5030683;28;20213;-61
2022/03/30 03:41:31;;;;;;;35.27;18.77;;;8.50;99.90;;;;;;5030419;28;20185;-61
2022/03/30 03:43:57;;;;;;;33.47;19.33;;;8.50;99.90;;;;;;5030536;28;20226;-61
2022/03/30 03:46:22;;;;;;;34.77;20.90;;;8.40;99.90;;;;;;5030725;28;20182;-61
2022/03/30 03:48:48;;;;;;;34.77;20.20;;;8.40;99.90;;;;;;5030372;28;20189;-61
2022/03/30 03:51:14;;;;;;;35.40;19.30;;;8.30;99.90;;;;;;5030399;28;20312;-61
2022/03/30 03:53:40;;;;;;;40.13;19.97;;;8.30;99.90;;;;;;5030586;28;20174;-61
2022/03/30 03:56:06;;;;;;;37.77;20.83;;;8.30;99.90;;;;;;5030301;28;20193;-61
2022/03/30 03:58:31;;;;;;;37.90;20.13;;;8.40;99.90;;;;;;5030082;28;20300;-60
2022/03/30 04:00:58;;;;;;;34.57;20.27;;;8.40;99.90;;;;;;5030228;28;20261;-60
2022/03/30 04:03:24;;;;;;;36.57;19.87;;;8.40;99.90;;;;;;5030192;28;20213;-60
2022/03/30 04:05:50;;;;;;;36.87;20.40;;;8.50;99.90;;;;;;5030506;28;20182;-62
2022/03/30 04:08:15;;;;;;;39.47;19.87;;;8.50;99.90;;;;;;5028169;28;20198;-59
2022/03/30 04:10:42;;;;;;;34.30;18.83;;;8.50;99.90;;;;;;5030296;28;20173;-62
2022/03/30 04:13:09;;;;;;;37.03;19.47;;;8.40;99.90;;;;;;5030452;28;20169;-62
2022/03/30 04:15:35;;;;;;;33.97;20.20;;;8.50;99.90;;;;;;5030050;28;20222;-62
2022/03/30 04:18:03;;;;;;;34.53;19.77;;;8.40;99.90;;;;;;5030063;28;20178;-62
2022/03/30 04:20:30;;;;;;;36.00;20.23;;;8.40;99.90;;;;;;5030015;28;20216;-62
2022/03/30 04:22:55;;;;;;;38.03;20.13;;;8.50;99.90;;;;;;5030054;28;20213;-62
2022/03/30 04:25:21;;;;;;;34.23;20.27;;;8.40;99.90;;;;;;5030016;28;20170;-62
2022/03/30 04:27:49;;;;;;;39.27;19.70;;;8.30;99.90;;;;;;5029896;28;20178;-62
2022/03/30 04:30:16;;;;;;;40.60;20.70;;;8.30;99.90;;;;;;5030054;28;20633;-62
2022/03/30 04:32:44;;;;;;;33.53;19.67;;;8.30;99.90;;;;;;5029421;28;20182;-62
2022/03/30 04:35:11;;;;;;;34.43;19.07;;;8.20;99.90;;;;;;5029772;28;20470;-62
2022/03/30 04:37:38;;;;;;;34.27;19.70;;;8.20;99.90;;;;;;5029990;28;20186;-62
2022/03/30 04:40:05;;;;;;;36.67;19.97;;;8.30;99.90;;;;;;5029857;28;20352;-62
2022/03/30 04:42:30;;;;;;;37.23;20.07;;;8.30;99.90;;;;;;5029790;28;20243;-62
2022/03/30 04:44:56;;;;;;;32.93;18.50;;;8.20;99.90;;;;;;5029836;28;20248;-62
2022/03/30 04:47:22;;;;;;;34.77;19.73;;;8.20;99.90;;;;;;5029862;28;20196;-62
2022/03/30 04:49:47;;;;;;;37.03;21.33;;;8.20;99.90;;;;;;5029803;28;20240;-62
2022/03/30 04:52:13;;;;;;;36.87;19.63;;;8.30;99.90;;;;;;5029744;28;20173;-62
2022/03/30 04:54:39;;;;;;;32.90;19.73;;;8.20;99.90;;;;;;5029641;28;20205;-62
2022/03/30 04:57:05;;;;;;;33.53;19.83;;;8.20;99.90;;;;;;5029538;28;20166;-62
2022/03/30 04:59:31;;;;;;;36.50;20.27;;;8.20;99.90;;;;;;5029981;28;20224;-62
2022/03/30 05:01:56;;;;;;;36.90;20.73;;;8.10;99.90;;;;;;5028225;28;20236;-62
2022/03/30 05:04:22;;;;;;;34.97;20.80;;;8.10;99.90;;;;;;5030030;28;20202;-62
2022/03/30 05:06:48;;;;;;;37.00;19.83;;;8.10;99.90;;;;;;5029749;28;20196;-62
2022/03/30 05:09:14;;;;;;;38.77;20.53;;;8.00;99.90;;;;;;5029443;28;20178;-62
2022/03/30 05:11:40;;;;;;;34.80;19.80;;;8.10;99.90;;;;;;5028380;28;20623;-62
2022/03/30 05:14:06;;;;;;;34.30;19.63;;;8.00;99.90;;;;;;5029443;28;20177;-62
2022/03/30 05:16:33;;;;;;;33.10;19.83;;;8.00;99.90;;;;;;5029799;28;20174;-62
2022/03/30 05:19:01;;;;;;;36.77;20.30;;;8.00;99.90;;;;;;5029791;28;20168;-62
2022/03/30 05:21:26;;;;;;;41.20;20.87;;;8.10;99.90;;;;;;5029543;28;20185;-65
2022/03/30 05:23:52;;;;;;;34.73;19.90;;;8.00;99.90;;;;;;5029472;28;20206;-62
2022/03/30 05:26:18;;;;;;;33.67;19.83;;;8.10;99.90;;;;;;5029612;28;20177;-62
2022/03/30 05:28:44;;;;;;;38.10;20.07;;;8.00;99.90;;;;;;5029417;28;20296;-62
2022/03/30 05:31:10;;;;;;;41.13;20.90;;;7.90;99.90;;;;;;5031846;28;20202;-62
2022/03/30 05:33:36;;;;;;;37.23;20.67;;;7.80;99.90;;;;;;5033232;28;20254;-61
2022/03/30 05:36:03;;;;;;;38.33;20.33;;;7.80;99.90;;;;;;5032678;28;20188;-61
2022/03/30 05:38:29;;;;;;;37.03;21.57;;;7.80;99.90;;;;;;5033007;28;20189;-61
2022/03/30 05:40:55;;;;;;;38.93;21.63;;;7.80;99.90;;;;;;5032959;28;20178;-61
2022/03/30 05:43:21;;;;;;;37.57;21.27;;;7.80;99.90;;;;;;5032868;28;20233;-62
2022/03/30 05:45:48;;;;;;;35.93;20.90;;;7.80;99.90;;;;;;5033138;28;20181;-62
2022/03/30 05:48:15;;;;;;;39.63;21.50;;;7.80;99.90;;;;;;5032953;28;20661;-62
2022/03/30 05:50:41;;;;;;;35.50;20.63;;;7.70;99.90;;;;;;5032668;28;20178;-61
2022/03/30 05:53:07;;;;;;;39.70;21.00;;;7.70;99.90;;;;;;5032764;28;20178;-62
2022/03/30 05:55:33;;;;;;;37.63;21.20;;;7.80;99.90;;;;;;5030616;28;20236;-61
2022/03/30 05:58:00;;;;;;;36.37;21.27;;;7.80;99.90;;;;;;5032293;28;20182;-62
2022/03/30 06:00:28;;;;;;;39.80;21.90;;;7.80;99.90;;;;;;5032724;28;20178;-62
2022/03/30 06:02:54;;;;;;;36.20;21.30;;;7.80;99.90;;;;;;5032644;28;20251;-62
2022/03/30 06:05:20;;;;;;;36.67;20.87;;;7.90;99.90;;;;;;5032818;28;20669;-62
2022/03/30 06:07:46;;;;;;;42.40;21.37;;;7.90;99.90;;;;;;5032645;28;20170;-62
2022/03/30 06:10:11;;;;;;;40.60;21.83;;;7.90;99.90;;;;;;5032670;28;20533;-63
2022/03/30 06:12:38;;;;;;;37.10;20.50;;;7.90;99.90;;;;;;5031980;28;20177;-62
2022/03/30 06:15:04;;;;;;;37.77;20.57;;;8.00;99.90;;;;;;5032484;28;20265;-62
2022/03/30 06:17:30;;;;;;;36.63;20.73;;;8.00;99.90;;;;;;5032760;28;20511;-59
2022/03/30 06:19:59;;;;;;;42.27;22.13;;;8.00;99.90;;;;;;5031070;28;20546;-60
2022/03/30 06:22:29;;;;;;;39.20;22.27;;;8.00;99.90;;;;;;5031227;28;20426;-59
2022/03/30 06:24:55;;;;;;;40.57;21.87;;;8.00;99.90;;;;;;5031699;28;20676;-60
2022/03/30 06:27:22;;;;;;;42.83;21.97;;;8.10;99.90;;;;;;5031221;28;20257;-60
2022/03/30 06:29:47;;;;;;;39.07;21.33;;;8.10;99.90;;;;;;5032484;28;20296;-60
2022/03/30 06:32:13;;;;;;;40.80;21.77;;;8.10;99.90;;;;;;5032546;28;20249;-61
2022/03/30 06:34:40;;;;;;;36.43;20.87;;;8.10;99.90;;;;;;5031970;28;20251;-73
2022/03/30 06:37:06;;;;;;;44.13;21.73;;;8.10;99.90;;;;;;5031487;28;20181;-68
2022/03/30 06:39:33;;;;;;;44.57;22.60;;;8.00;99.90;;;;;;5032246;28;20174;-69
2022/03/30 06:41:59;;;;;;;39.10;21.67;;;8.00;99.90;;;;;;5032238;28;20185;-70
2022/03/30 06:44:25;;;;;;;41.50;21.87;;;8.10;99.90;;;;;;5029769;28;20533;-69
2022/03/30 06:46:52;;;;;;;42.57;22.00;;;8.10;99.90;;;;;;5031950;28;20181;-69
2022/03/30 06:49:18;;;;;;;44.20;22.47;;;8.10;99.90;;;;;;5032193;28;20174;-69
2022/03/30 06:51:44;;;;;;;43.97;22.13;;;8.00;99.90;;;;;;5031995;28;20178;-69
2022/03/30 06:54:09;;;;;;;36.17;21.60;;;8.10;99.90;;;;;;5031934;28;20235;-68
2022/03/30 06:56:35;;;;;;;37.77;22.10;;;8.10;99.90;;;;;;5031982;28;20174;-69
2022/03/30 06:59:01;;;;;;;38.80;21.83;;;8.20;99.90;;;;;;5032239;28;20177;-70
2022/03/30 07:01:27;;;;;;;48.50;22.40;;;8.30;99.90;;;;;;5031654;28;20667;-70
2022/03/30 07:03:53;;;;;;;42.33;23.27;;;8.40;99.90;;;;;;5027863;28;20250;-69
2022/03/30 07:06:18;;;;;;;43.73;22.50;;;8.50;99.90;;;;;;5011907;28;20217;-67
2022/03/30 07:11:28;;;;;;;41.10;23.03;;;8.50;99.90;;;;;;5011939;28;20236;-69
2022/03/30 07:13:57;;;;;;;43.53;23.33;;;8.50;99.90;;;;;;5020400;28;20174;-73
2022/03/30 07:16:23;;;;;;;44.20;23.50;;;8.50;99.90;;;;;;5031805;28;20248;-74
2022/03/30 07:18:50;;;;;;;39.80;22.40;;;8.60;99.90;;;;;;5031491;28;20162;-75
2022/03/30 07:21:16;;;;;;;45.10;23.10;;;8.60;99.90;;;;;;5031571;28;20176;-76
2022/03/30 07:23:42;;;;;;;35.80;22.37;;;8.60;99.90;;;;;;5031524;28;20355;-74
2022/03/30 07:26:08;;;;;;;41.00;22.53;;;8.50;99.90;;;;;;5031544;28;20265;-71
2022/03/30 07:28:37;;;;;;;39.00;22.43;;;8.60;99.90;;;;;;5030224;28;20676;-73
2022/03/30 07:31:03;;;;;;;48.63;23.47;;;8.70;99.90;;;;;;5031453;28;20621;-74
2022/03/30 07:33:32;;;;;;;40.17;23.33;;;8.70;99.90;;;;;;5031354;28;20465;-73
2022/03/30 07:35:58;;;;;;;42.17;23.07;;;8.70;99.90;;;;;;5031346;28;20633;-72
2022/03/30 07:38:24;;;;;;;43.23;23.37;;;8.70;99.90;;;;;;5031090;28;20248;-72
2022/03/30 07:40:50;;;;;;;34.93;21.80;;;8.80;99.90;;;;;;5031032;28;20629;-73
2022/03/30 07:43:17;;;;;;;40.90;22.57;;;8.80;99.90;;;;;;5030907;28;20221;-73
2022/03/30 07:45:43;;;;;;;40.50;22.87;;;8.80;99.90;;;;;;5030661;28;20240;-66
2022/03/30 07:48:09;;;;;;;50.97;22.53;;;8.80;99.90;;;;;;5030734;28;20178;-71
2022/03/30 07:50:36;;;;;;;42.20;23.70;;;8.90;99.90;;;;;;5031000;28;20182;-71
2022/03/30 07:53:03;;;;;;;41.00;23.27;;;8.90;99.90;;;;;;5027313;28;20197;-72
2022/03/30 07:55:29;;;;;;;43.27;22.30;;;9.00;99.90;;;;;;5029024;28;20227;-71
2022/03/30 07:57:56;;;;;;;41.33;23.07;;;9.10;99.90;;;;;;5030759;28;20182;-71
2022/03/30 08:00:22;;;;;;;41.33;23.53;;;9.10;99.90;;;;;;5030203;28;20668;-66
2022/03/30 08:02:49;;;;;;;43.93;24.20;;;9.20;99.90;;;;;;5030470;28;20707;-70
2022/03/30 08:05:16;;;;;;;42.57;24.03;;;9.30;99.90;;;;;;5030555;28;20170;-70
2022/03/30 08:07:44;;;;;;;41.77;24.10;;;9.20;99.90;;;;;;5010989;28;20171;-70
2022/03/30 08:10:11;;;;;;;43.93;24.63;;;9.10;99.90;;;;;;5020807;28;20174;-72
2022/03/30 08:12:38;;;;;;;40.67;23.93;;;9.00;99.90;;;;;;5030308;28;20166;-67
2022/03/30 08:15:06;;;;;;;42.90;23.63;;;9.10;99.90;;;;;;5030282;28;20180;-70
2022/03/30 08:17:32;;;;;;;44.30;23.87;;;9.20;99.90;;;;;;5030474;28;20177;-62
2022/03/30 08:19:59;;;;;;;41.73;24.60;;;9.30;99.90;;;;;;5030072;28;20185;-64
2022/03/30 08:22:25;;;;;;;42.63;24.70;;;9.30;99.90;;;;;;5029921;28;20186;-62
2022/03/30 08:24:53;;;;;;;45.90;24.97;;;9.50;99.90;;;;;;5030359;28;20209;-64
2022/03/30 08:27:21;;;;;;;45.77;22.63;;;9.50;99.90;;;;;;5028434;28;20240;-63
2022/03/30 08:29:48;;;;;;;44.40;24.10;;;9.70;99.90;;;;;;5030187;28;20339;-64
2022/03/30 08:32:16;;;;;;;40.43;23.37;;;9.90;99.90;;;;;;5028887;28;20268;-62
2022/03/30 08:34:42;;;;;;;42.20;24.33;;;10.00;99.90;;;;;;5026860;28;20177;-62
2022/03/30 08:37:09;;;;;;;40.13;23.97;;;10.20;99.90;;;;;;5029027;28;20597;-62
2022/03/30 08:39:35;;;;;;;48.60;24.03;;;10.30;99.90;;;;;;5029114;28;20197;-62
2022/03/30 08:42:03;;;;;;;46.93;25.20;;;10.50;99.90;;;;;;5029957;28;20742;-63
2022/03/30 08:44:30;;;;;;;45.13;24.90;;;10.40;99.90;;;;;;5029938;28;20313;-64
2022/03/30 08:46:56;;;;;;;42.00;24.03;;;10.30;99.90;;;;;;5018624;28;20297;-62
2022/03/30 08:49:21;;;;;;;38.43;21.83;;;10.40;99.90;;;;;;5023533;28;20657;-62
2022/03/30 08:51:49;;;;;;;40.27;23.23;;;10.60;99.90;;;;;;5029542;28;20181;-62
2022/03/30 08:54:17;;;;;;;39.47;23.17;;;10.70;99.90;;;;;;5029938;28;20266;-62
2022/03/30 08:56:43;;;;;;;40.17;23.33;;;10.60;99.90;;;;;;5029575;28;20644;-62
2022/03/30 08:59:11;;;;;;;39.37;23.03;;;10.20;99.90;;;;;;5028650;28;20189;-63
2022/03/30 09:01:40;;;;;;;41.57;24.30;;;10.30;99.90;;;;;;5029952;28;20166;-63
2022/03/30 09:04:12;;;;;;;38.80;22.63;;;10.70;99.90;;;;;;5029660;28;20214;-62
2022/03/30 09:06:55;;;;;;;35.93;22.33;;;11.30;99.90;;;;;;5033015;28;20497;-63
2022/03/30 09:09:34;;;;;;;40.10;24.40;;;11.10;99.90;;;;;;5032583;28;20194;-63
2022/03/30 09:12:01;;;;;;;42.30;23.50;;;11.20;99.90;;;;;;5034114;28;20177;-62
2022/03/30 09:14:31;;;;;;;38.83;23.50;;;11.30;99.90;;;;;;5033452;28;20178;-62
2022/03/30 09:17:03;;;;;;;36.73;23.07;;;11.50;99.90;;;;;;5033670;28;20196;-62
2022/03/30 09:19:36;;;;;;;40.57;23.40;;;11.40;99.90;;;;;;5033807;28;20296;-62
2022/03/30 09:22:03;;;;;;;39.73;22.43;;;11.10;99.90;;;;;;5032590;28;20257;-63
2022/03/30 09:24:32;;;;;;;36.23;22.13;;;12.10;99.90;;;;;;5033608;28;20221;-62
2022/03/30 09:26:59;;;;;;;35.83;22.60;;;13.20;99.90;;;;;;5033464;28;20224;-62
2022/03/30 09:29:28;;;;;;;38.10;23.52;;;14.40;99.90;;;;;;5031869;28;20174;-62
2022/03/30 09:31:54;;;;;;;38.72;23.48;;;16.00;99.90;;;;;;5033472;28;20249;-62
2022/03/30 09:34:20;;;;;;;36.80;22.67;;;15.20;99.90;;;;;;5033512;28;20285;-62
2022/03/30 09:36:50;;;;;;;41.03;23.55;;;14.10;99.90;;;;;;5033392;28;20648;-62
2022/03/30 09:39:40;;;;;;;35.22;23.95;;;14.80;99.90;;;;;;5033354;28;20633;-60
2022/03/30 09:42:08;;;;;;;40.53;23.73;;;15.40;99.90;;;;;;5029621;28;20224;-60
2022/03/30 09:44:54;;;;;;;35.20;23.95;;;14.60;99.90;;;;;;5016121;28;20313;-60
2022/03/30 09:47:22;;;;;;;34.17;23.08;;;14.50;99.90;;;;;;5024259;28;20177;-60
2022/03/30 09:49:54;;;;;;;36.08;24.10;;;13.80;99.90;;;;;;5024237;28;20236;-60
2022/03/30 09:52:21;;;;;;;36.67;24.40;;;13.30;99.90;;;;;;5032024;28;20567;-60
2022/03/30 09:54:59;;;;;;;38.25;24.40;;;13.10;99.90;;;;;;5032991;28;20177;-60
2022/03/30 09:57:26;;;;;;;40.35;25.40;;;12.80;99.90;;;;;;5030271;28;20185;-60
2022/03/30 10:00:10;;;;;;;36.42;24.27;;;13.00;99.90;;;;;;5035208;28;20205;-60
2022/03/30 10:02:40;;;;;;;38.03;24.98;;;14.50;99.90;;;;;;5032479;28;20245;-60
2022/03/30 10:05:09;;;;;;;37.53;24.08;;;14.60;99.90;;;;;;5032500;28;20265;-61
2022/03/30 10:07:35;;;;;;;38.30;24.42;;;14.00;99.90;;;;;;5032641;28;20213;-60
2022/03/30 10:10:03;;;;;;;36.20;23.77;;;13.70;99.90;;;;;;5032737;28;20178;-60
2022/03/30 10:12:29;;;;;;;45.92;25.23;;;13.30;99.90;;;;;;5032293;28;20608;-60
2022/03/30 10:14:55;;;;;;;46.72;25.45;;;12.50;99.90;;;;;;5032374;28;20190;-60
2022/03/30 10:17:24;;;;;;;38.65;26.02;;;12.20;99.90;;;;;;5032205;28;20324;-60
2022/03/30 10:19:52;;;;;;;42.88;25.60;;;12.20;99.90;;;;;;5032515;28;20256;-60
2022/03/30 10:22:48;;;;;;;38.45;24.55;;;12.40;99.90;;;;;;5031428;28;20468;-61
2022/03/30 10:25:22;;;;;;;41.95;24.67;;;12.30;99.90;;;;;;5028986;28;20737;-61
2022/03/30 10:27:56;;;;;;;38.42;23.42;;;12.40;99.90;;;;;;5029028;28;20203;-61
2022/03/30 10:30:31;;;;;;;36.90;23.58;;;12.40;99.90;;;;;;5028780;28;20208;-60
2022/03/30 10:32:59;;;;;;;41.03;23.65;;;13.30;99.90;;;;;;5029839;28;20211;-61
2022/03/30 10:35:47;;;;;;;35.95;23.75;;;14.40;99.90;;;;;;5030845;28;20185;-63
2022/03/30 10:38:15;;;;;;;37.28;22.65;;;15.30;99.90;;;;;;5032036;28;20178;-63
2022/03/30 10:40:43;;;;;;;36.78;22.90;;;15.00;99.90;;;;;;5032071;28;20174;-63
2022/03/30 10:43:10;;;;;;;36.13;23.27;;;16.50;99.90;;;;;;5030221;28;20222;-63
2022/03/30 10:45:48;;;;;;;37.42;23.27;;;16.20;99.90;;;;;;5028877;28;20279;-63
2022/03/30 10:48:17;;;;;;;34.20;22.75;;;15.90;99.90;;;;;;5029995;28;20181;-63
2022/03/30 10:50:51;;;;;;;42.53;24.70;;;16.00;99.90;;;;;;5030749;28;20197;-63
2022/03/30 10:53:33;;;;;;;36.53;23.73;;;16.60;99.90;;;;;;5032095;28;20644;-63
2022/03/30 10:56:14;;;;;;;36.38;24.63;;;15.80;99.90;;;;;;5031912;28;20227;-63
2022/03/30 10:59:00;;;;;;;38.92;25.20;;;16.50;99.90;;;;;;5031829;28;20170;-64
2022/03/30 11:01:38;;;;;;;33.63;24.30;;;16.00;99.90;;;;;;5029853;28;20181;-63
2022/03/30 11:04:18;;;;;;;35.97;24.58;;;16.00;99.90;;;;;;5031810;28;20202;-63
2022/03/30 11:06:54;;;;;;;35.38;23.83;;;15.60;99.90;;;;;;5031935;28;20174;-63
2022/03/30 11:09:28;;;;;;;39.15;24.88;;;15.60;99.90;;;;;;5031719;28;20261;-63
2022/03/30 11:12:13;;;;;;;40.60;25.75;;;15.30;99.90;;;;;;5031540;28;20181;-63
2022/03/30 11:14:44;;;;;;;38.88;25.85;;;14.60;99.90;;;;;;5031668;28;20170;-63
2022/03/30 11:17:31;;;;;;;34.83;24.60;;;14.10;99.90;;;;;;5031767;28;20166;-63
2022/03/30 11:19:57;;;;;;;39.63;24.38;;;14.00;99.90;;;;;;5031169;28;20248;-63
2022/03/30 11:22:25;;;;;;;38.05;25.52;;;14.10;99.90;;;;;;5029981;28;20178;-63
2022/03/30 11:25:13;;;;;;;39.97;24.83;;;14.40;99.90;;;;;;5030323;28;20243;-63
2022/03/30 11:27:43;;;;;;;37.17;24.60;;;14.50;99.90;;;;;;5030663;28;20188;-63
2022/03/30 11:30:16;;;;;;;42.92;26.33;;;14.20;99.90;;;;;;5031431;28;20170;-63
2022/03/30 11:32:51;;;;;;;43.55;26.38;;;14.40;99.90;;;;;;5031281;28;20657;-63
2022/03/30 11:35:20;;;;;;;40.65;25.00;;;14.10;99.90;;;;;;5031359;28;20208;-63
2022/03/30 11:38:07;;;;;;;42.20;25.05;;;13.90;99.90;;;;;;5031245;28;20710;-63
2022/03/30 11:40:45;;;;;;;40.97;25.80;;;13.90;99.90;;;;;;5030912;28;20211;-63
2022/03/30 11:43:11;;;;;;;41.70;24.92;;;13.80;99.90;;;;;;5029444;28;20275;-63
2022/03/30 11:45:38;;;;;;;43.67;24.38;;;13.90;99.90;;;;;;5031101;28;20276;-63
2022/03/30 11:48:06;;;;;;;38.25;24.85;;;14.00;99.90;;;;;;5030851;28;20198;-63
2022/03/30 11:50:36;;;;;;;43.92;25.83;;;14.10;99.90;;;;;;5031075;28;20707;-63
2022/03/30 11:53:09;;;;;;;39.78;24.73;;;13.90;99.90;;;;;;5030950;28;20178;-62
2022/03/30 11:55:38;;;;;;;40.08;24.10;;;14.40;99.90;;;;;;5029596;28;20166;-63
2022/03/30 11:58:04;;;;;;;43.58;25.30;;;15.00;99.90;;;;;;5031038;28;20162;-64
2022/03/30 12:00:32;;;;;;;38.42;25.05;;;15.10;99.90;;;;;;5030801;28;20186;-63
2022/03/30 12:03:01;;;;;;;36.28;24.42;;;15.70;99.90;;;;;;5028600;28;20253;-63
2022/03/30 12:05:27;;;;;;;37.22;24.13;;;16.20;99.90;;;;;;5030627;28;20193;-63
2022/03/30 12:07:56;;;;;;;37.30;24.83;;;16.70;99.90;;;;;;5029545;28;20174;-63
2022/03/30 12:10:30;;;;;;;36.63;25.45;;;18.00;99.90;;;;;;5030582;28;20231;-63
2022/03/30 12:12:56;;;;;;;41.22;25.98;;;16.60;99.90;;;;;;5029209;28;20172;-63
2022/03/30 12:15:22;;;;;;;44.20;27.15;;;15.70;99.90;;;;;;5029347;28;20178;-64
2022/03/30 12:17:57;;;;;;;42.30;27.77;;;14.90;99.90;;;;;;5030401;28;20253;-64
2022/03/30 12:20:33;;;;;;;49.55;26.15;;;13.50;99.90;;;;;;5011391;28;20182;-63
2022/03/30 12:23:05;;;;;;;41.63;25.95;;;14.20;99.90;;;;;;5029884;28;20178;-64
2022/03/30 12:25:33;;;;;;;46.38;27.10;;;15.20;99.90;;;;;;5030382;28;20504;-64
2022/03/30 12:28:01;;;;;;;39.05;26.38;;;16.90;99.90;;;;;;5030300;28;20228;-64
2022/03/30 12:30:31;;;;;;;40.13;25.98;;;17.00;99.90;;;;;;5030818;28;20244;-63
2022/03/30 12:32:57;;;;;;;39.50;26.15;;;17.60;99.90;;;;;;5030731;28;20599;-63
2022/03/30 12:35:28;;;;;;;43.25;27.48;;;18.00;99.90;;;;;;5030411;28;20176;-63
2022/03/30 12:38:08;;;;;;;41.95;26.13;;;18.50;99.90;;;;;;5030217;28;20162;-63
2022/03/30 12:40:39;;;;;;;35.95;26.15;;;18.60;99.90;;;;;;5025350;28;20191;-64
2022/03/30 12:43:06;;;;;;;39.78;27.00;;;17.80;99.90;;;;;;5029946;28;20248;-64
2022/03/30 12:45:33;;;;;;;40.65;29.13;;;17.80;99.90;;;;;;5030205;28;20170;-64